createdAt,value
2022-08-02T00:01:52.887Z,98322.03
2022-08-02T00:03:57.704Z,98318.56
2022-08-02T00:06:02.586Z,98321.66
2022-08-02T00:08:08.073Z,98327.91
2022-08-02T00:10:17.061Z,98321.75
2022-08-02T00:12:21.966Z,98323.69
2022-08-02T00:14:29.509Z,98320.63
2022-08-02T00:16:37.618Z,98324.94
2022-08-02T00:18:43.689Z,98331.34
2022-08-02T00:20:48.551Z,98327.31
2022-08-02T00:22:53.441Z,98324.78
2022-08-02T00:24:58.334Z,98326.47
2022-08-02T00:27:09.352Z,98324.66
2022-08-02T00:29:17.395Z,98327.13
2022-08-02T00:31:25.114Z,98326.84
2022-08-02T00:34:27.489Z,98322.50
2022-08-02T00:35:55.378Z,98326.78
2022-08-02T00:38:00.290Z,98321.88
2022-08-02T00:40:05.108Z,98335.50
2022-08-02T00:42:11.180Z,98335.06
2022-08-02T00:44:16.727Z,98331.34
2022-08-02T00:46:24.473Z,98325.63
2022-08-02T00:48:29.239Z,98321.69
2022-08-02T00:50:35.878Z,98325.28
2022-08-02T00:52:40.705Z,98322.53
2022-08-02T00:54:45.611Z,98318.91
2022-08-02T00:56:51.234Z,98320.00
2022-08-02T00:58:56.268Z,98315.78
2022-08-02T01:01:02.256Z,98315.94
2022-08-02T01:03:09.815Z,98316.06
2022-08-02T01:05:14.684Z,98317.16
2022-08-02T01:07:21.082Z,98312.72
2022-08-02T01:09:26.850Z,98319.69
2022-08-02T01:11:32.390Z,98314.13
2022-08-02T01:13:37.301Z,98314.69
2022-08-02T01:15:48.933Z,98310.84
2022-08-02T01:17:59.277Z,98314.88
2022-08-02T01:20:15.300Z,98312.25
2022-08-02T01:23:04.060Z,98309.84
2022-08-02T01:25:24.289Z,98318.59
2022-08-02T01:27:40.104Z,98328.13
2022-08-02T01:29:51.403Z,98321.56
2022-08-02T01:32:01.353Z,98320.50
2022-08-02T01:34:15.453Z,98323.53
2022-08-02T01:36:23.406Z,98325.13
2022-08-02T01:38:33.917Z,98333.31
2022-08-02T01:40:43.021Z,98333.31
2022-08-02T01:42:51.426Z,98332.38
2022-08-02T01:45:00.498Z,98335.03
2022-08-02T01:47:09.158Z,98341.16
2022-08-02T01:49:19.181Z,98345.63
2022-08-02T01:51:45.896Z,98354.75
2022-08-02T01:53:51.584Z,98344.56
2022-08-02T01:55:59.192Z,98345.66
2022-08-02T01:58:06.844Z,98349.13
2022-08-02T02:00:15.841Z,98342.16
2022-08-02T02:02:23.372Z,98344.47
2022-08-02T02:04:30.916Z,98354.44
2022-08-02T02:06:36.834Z,98355.44
2022-08-02T02:08:44.530Z,98354.59
2022-08-02T02:10:49.777Z,98354.09
2022-08-02T02:12:56.223Z,98362.38
2022-08-02T02:15:02.971Z,98359.50
2022-08-02T02:18:10.408Z,98358.09
2022-08-02T02:19:39.408Z,98360.97
2022-08-02T02:21:44.248Z,98360.25
2022-08-02T02:23:50.055Z,98354.63
2022-08-02T02:25:57.059Z,98349.94
2022-08-02T02:28:06.790Z,98349.25
2022-08-02T02:30:15.532Z,98346.22
2022-08-02T02:32:25.442Z,98349.75
2022-08-02T02:34:32.363Z,98350.44
2022-08-02T02:36:39.151Z,98351.03
2022-08-02T02:38:45.352Z,98356.94
2022-08-02T02:40:51.875Z,98352.72
2022-08-02T02:42:59.123Z,98352.97
2022-08-02T02:45:06.072Z,98352.13
2022-08-02T02:47:13.501Z,98349.00
2022-08-02T02:49:22.271Z,98349.00
2022-08-02T02:51:27.961Z,98350.09
2022-08-02T02:54:31.069Z,98343.13
2022-08-02T02:56:02.306Z,98349.00
2022-08-02T02:58:08.855Z,98343.72
2022-08-02T03:00:16.153Z,98341.09
2022-08-02T03:02:22.526Z,98344.56
2022-08-02T03:04:35.981Z,98346.63
2022-08-02T03:06:56.428Z,98337.50
2022-08-02T03:09:02.241Z,98337.75
2022-08-02T03:11:07.391Z,98334.00
2022-08-02T03:13:12.739Z,98329.94
2022-08-02T03:15:20.437Z,98342.25
2022-08-02T03:17:25.342Z,98345.78
2022-08-02T03:19:33.375Z,98343.88
2022-08-02T03:21:38.326Z,98350.56
2022-08-02T03:23:45.162Z,98350.34
2022-08-02T03:25:50.035Z,98351.06
2022-08-02T03:27:55.149Z,98353.31
2022-08-02T03:30:00.033Z,98352.38
2022-08-02T03:32:05.065Z,98353.94
2022-08-02T03:34:10.707Z,98352.00
2022-08-02T03:36:20.467Z,98354.31
2022-08-02T03:38:28.909Z,98352.50
2022-08-02T03:40:34.741Z,98356.22
2022-08-02T03:42:40.364Z,98358.41
2022-08-02T03:44:45.779Z,98352.97
2022-08-02T03:46:50.823Z,98354.19
2022-08-02T03:48:56.062Z,98353.59
2022-08-02T03:51:01.694Z,98358.97
2022-08-02T03:53:09.959Z,98362.22
2022-08-02T03:55:25.155Z,98359.56
2022-08-02T03:57:29.767Z,98355.13
2022-08-02T03:59:43.407Z,98361.63
2022-08-02T04:01:48.296Z,98363.13
2022-08-02T04:03:53.265Z,98380.28
2022-08-02T04:06:03.722Z,98380.75
2022-08-02T04:08:34.897Z,98383.66
2022-08-02T04:10:57.558Z,98382.81
2022-08-02T04:13:02.537Z,98386.84
2022-08-02T04:15:09.691Z,98389.50
2022-08-02T04:17:17.933Z,98392.75
2022-08-02T04:19:30.626Z,98386.75
2022-08-02T04:21:48.931Z,98387.47
2022-08-02T04:24:00.121Z,98387.72
2022-08-02T04:26:07.891Z,98394.47
2022-08-02T04:28:17.090Z,98399.88
2022-08-02T04:30:24.137Z,98393.91
2022-08-02T04:32:29.961Z,98399.56
2022-08-02T04:34:34.929Z,98401.50
2022-08-02T04:36:41.186Z,98407.97
2022-08-02T04:38:46.184Z,98408.81
2022-08-02T04:40:58.126Z,98415.81
2022-08-02T04:43:03.062Z,98419.28
2022-08-02T04:45:09.292Z,98420.59
2022-08-02T04:47:14.172Z,98416.03
2022-08-02T04:49:19.140Z,98418.44
2022-08-02T04:51:24.142Z,98422.66
2022-08-02T04:53:43.042Z,98420.34
2022-08-02T04:55:48.609Z,98418.91
2022-08-02T04:57:58.699Z,98417.59
2022-08-02T05:00:03.789Z,98416.63
2022-08-02T05:02:08.890Z,98411.69
2022-08-02T05:04:14.005Z,98411.22
2022-08-02T05:06:19.927Z,98410.13
2022-08-02T05:08:24.906Z,98412.44
2022-08-02T05:10:29.808Z,98410.88
2022-08-02T05:12:34.693Z,98407.00
2022-08-02T05:14:42.293Z,98418.31
2022-08-02T05:16:47.171Z,98415.53
2022-08-02T05:18:52.371Z,98408.72
2022-08-02T05:20:58.395Z,98412.44
2022-08-02T05:23:05.683Z,98412.06
2022-08-02T05:25:12.007Z,98414.09
2022-08-02T05:27:21.520Z,98410.25
2022-08-02T05:29:26.889Z,98409.53
2022-08-02T05:31:34.550Z,98410.72
2022-08-02T05:33:39.431Z,98414.06
2022-08-02T05:35:44.286Z,98418.00
2022-08-02T05:37:49.489Z,98417.88
2022-08-02T05:39:55.928Z,98424.25
2022-08-02T05:42:01.232Z,98419.44
2022-08-02T05:44:06.885Z,98410.28
2022-08-02T05:46:11.837Z,98425.31
2022-08-02T05:48:19.582Z,98420.84
2022-08-02T05:50:24.710Z,98421.59
2022-08-02T05:52:45.100Z,98417.34
2022-08-02T05:54:57.455Z,98423.78
2022-08-02T05:57:07.557Z,98418.13
2022-08-02T05:59:20.725Z,98417.50
2022-08-02T06:01:31.977Z,98421.53
2022-08-02T06:03:43.650Z,98425.25
2022-08-02T06:05:54.453Z,98421.50
2022-08-02T06:08:02.328Z,98421.88
2022-08-02T06:10:08.353Z,98421.88
2022-08-02T06:12:17.655Z,98427.91
2022-08-02T06:14:30.036Z,98426.41
2022-08-02T06:16:42.247Z,98424.09
2022-08-02T06:18:51.598Z,98432.03
2022-08-02T06:20:58.839Z,98426.84
2022-08-02T06:23:25.801Z,98427.84
2022-08-02T06:25:48.125Z,98435.94
2022-08-02T06:27:56.736Z,98435.47
2022-08-02T06:30:01.786Z,98433.94
2022-08-02T06:32:07.319Z,98429.38
2022-08-02T06:34:14.763Z,98431.88
2022-08-02T06:36:30.602Z,98432.03
2022-08-02T06:38:43.921Z,98430.31
2022-08-02T06:41:00.957Z,98429.09
2022-08-02T06:43:15.487Z,98429.69
2022-08-02T06:45:23.347Z,98431.69
2022-08-02T06:47:29.102Z,98430.63
2022-08-02T06:49:52.382Z,98433.88
2022-08-02T06:51:59.595Z,98435.19
2022-08-02T06:54:04.324Z,98438.16
2022-08-02T06:56:09.246Z,98434.81
2022-08-02T06:58:15.525Z,98434.00
2022-08-02T07:00:20.424Z,98437.81
2022-08-02T07:02:25.466Z,98435.44
2022-08-02T07:04:30.107Z,98446.91
2022-08-02T07:06:37.651Z,98438.94
2022-08-02T07:08:54.826Z,98444.13
2022-08-02T07:11:08.214Z,98436.31
2022-08-02T07:13:16.322Z,98437.03
2022-08-02T07:15:21.166Z,98430.47
2022-08-02T07:17:26.020Z,98422.28
2022-08-02T07:19:36.152Z,98431.38
2022-08-02T07:21:56.904Z,98428.16
2022-08-02T07:24:04.364Z,98426.47
2022-08-02T07:26:09.254Z,98425.91
2022-08-02T07:28:20.791Z,98421.44
2022-08-02T07:30:29.232Z,98414.56
2022-08-02T07:32:34.724Z,98414.00
2022-08-02T07:34:39.570Z,98415.97
2022-08-02T07:36:50.043Z,98418.50
2022-08-02T07:38:54.911Z,98416.91
2022-08-02T07:40:59.830Z,98414.97
2022-08-02T07:43:04.779Z,98418.59
2022-08-02T07:45:10.533Z,98419.88
2022-08-02T07:47:15.398Z,98411.00
2022-08-02T07:49:21.175Z,98412.09
2022-08-02T07:51:26.119Z,98413.34
2022-08-02T07:53:50.697Z,98417.41
2022-08-02T07:55:56.537Z,98407.69
2022-08-02T07:58:01.465Z,98408.34
2022-08-02T08:00:07.223Z,98417.94
2022-08-02T08:02:16.739Z,98417.63
2022-08-02T08:04:21.899Z,98410.19
2022-08-02T08:06:28.819Z,98426.97
2022-08-02T08:08:37.299Z,98422.06
2022-08-02T08:10:43.180Z,98418.78
2022-08-02T08:12:48.105Z,98416.22
2022-08-02T08:14:53.062Z,98413.88
2022-08-02T08:16:57.729Z,98417.75
2022-08-02T08:19:02.722Z,98414.88
2022-08-02T08:21:07.686Z,98414.50
2022-08-02T08:23:12.339Z,98411.72
2022-08-02T08:25:19.811Z,98420.28
2022-08-02T08:27:25.919Z,98423.66
2022-08-02T08:29:30.930Z,98429.72
2022-08-02T08:31:35.731Z,98431.06
2022-08-02T08:33:40.658Z,98430.66
2022-08-02T08:35:45.686Z,98420.06
2022-08-02T08:37:50.609Z,98425.84
2022-08-02T08:39:58.207Z,98423.63
2022-08-02T08:42:09.687Z,98421.66
2022-08-02T08:44:14.865Z,98426.56
2022-08-02T08:46:23.904Z,98422.41
2022-08-02T08:48:31.889Z,98426.44
2022-08-02T08:50:39.224Z,98415.53
2022-08-02T08:52:45.778Z,98418.28
2022-08-02T08:54:51.915Z,98424.53
2022-08-02T08:56:57.890Z,98421.09
2022-08-02T08:59:06.665Z,98421.97
2022-08-02T09:01:12.157Z,98423.69
2022-08-02T09:03:20.047Z,98420.19
2022-08-02T09:05:25.322Z,98415.72
2022-08-02T09:07:30.421Z,98420.19
2022-08-02T09:09:35.309Z,98422.56
2022-08-02T09:11:40.550Z,98422.94
2022-08-02T09:13:52.171Z,98428.38
2022-08-02T09:16:11.755Z,98428.59
2022-08-02T09:18:18.933Z,98425.44
2022-08-02T09:20:26.026Z,98425.00
2022-08-02T09:22:32.931Z,98420.22
2022-08-02T09:24:44.681Z,98420.75
2022-08-02T09:26:51.309Z,98423.78
2022-08-02T09:29:03.097Z,98418.47
2022-08-02T09:31:14.671Z,98412.63
2022-08-02T09:33:29.270Z,98414.16
2022-08-02T09:36:05.999Z,98415.13
2022-08-02T09:38:10.770Z,98417.81
2022-08-02T09:40:15.817Z,98413.50
2022-08-02T09:42:21.097Z,98407.97
2022-08-02T09:44:34.237Z,98405.78
2022-08-02T09:46:43.799Z,98410.00
2022-08-02T09:48:55.997Z,98414.00
2022-08-02T09:51:00.941Z,98401.50
2022-08-02T09:53:05.840Z,98393.78
2022-08-02T09:55:11.464Z,98392.47
2022-08-02T09:57:28.918Z,98388.78
2022-08-02T09:59:33.926Z,98381.59
2022-08-02T10:01:46.973Z,98387.44
2022-08-02T10:04:00.336Z,98389.44
2022-08-02T10:06:05.725Z,98394.72
2022-08-02T10:08:10.987Z,98389.19
2022-08-02T10:10:15.995Z,98378.63
2022-08-02T10:12:22.449Z,98375.03
2022-08-02T10:14:28.550Z,98378.16
2022-08-02T10:16:36.117Z,98371.25
2022-08-02T10:18:44.107Z,98376.66
2022-08-02T10:20:49.171Z,98378.94
2022-08-02T10:22:54.886Z,98384.97
2022-08-02T10:24:59.757Z,98372.28
2022-08-02T10:27:04.446Z,98376.59
2022-08-02T10:29:11.251Z,98367.66
2022-08-02T10:31:19.953Z,98368.59
2022-08-02T10:33:27.101Z,98374.50
2022-08-02T10:35:37.561Z,98379.31
2022-08-02T10:37:44.086Z,98373.69
2022-08-02T10:39:50.906Z,98375.25
2022-08-02T10:41:56.544Z,98376.97
2022-08-02T10:44:03.049Z,98368.38
2022-08-02T10:46:35.860Z,98371.91
2022-08-02T10:49:29.727Z,98358.16
2022-08-02T10:52:00.771Z,98356.94
2022-08-02T10:54:11.629Z,98357.41
2022-08-02T10:56:20.777Z,98360.97
2022-08-02T10:58:29.483Z,98350.88
2022-08-02T11:00:35.051Z,98350.25
2022-08-02T11:02:43.193Z,98341.19
2022-08-02T11:05:12.760Z,98345.53
2022-08-02T11:07:22.551Z,98355.38
2022-08-02T11:09:33.490Z,98340.13
2022-08-02T11:12:06.138Z,98345.28
2022-08-02T11:14:16.849Z,98343.03
2022-08-02T11:16:21.696Z,98341.34
2022-08-02T11:18:27.376Z,98333.03
2022-08-02T11:20:32.256Z,98335.22
2022-08-02T11:22:39.931Z,98329.22
2022-08-02T11:24:44.988Z,98333.50
2022-08-02T11:26:49.914Z,98322.63
2022-08-02T11:28:55.224Z,98324.28
2022-08-02T11:31:01.581Z,98326.13
2022-08-02T11:33:08.119Z,98328.47
2022-08-02T11:35:13.468Z,98320.75
2022-08-02T11:37:30.903Z,98321.97
2022-08-02T11:39:38.490Z,98320.03
2022-08-02T11:41:47.061Z,98323.75
2022-08-02T11:43:57.248Z,98321.06
2022-08-02T11:46:06.024Z,98314.59
2022-08-02T11:48:10.836Z,98313.25
2022-08-02T11:50:15.810Z,98311.72
2022-08-02T11:52:21.121Z,98310.34
2022-08-02T11:54:27.725Z,98305.00
2022-08-02T11:56:35.531Z,98303.56
2022-08-02T11:58:41.878Z,98305.25
2022-08-02T12:00:47.220Z,98305.97
2022-08-02T12:02:52.509Z,98307.03
2022-08-02T12:05:00.237Z,98300.25
2022-08-02T12:07:07.397Z,98294.91
2022-08-02T12:09:19.002Z,98294.91
2022-08-02T12:11:24.424Z,98293.22
2022-08-02T12:13:44.238Z,98295.00
2022-08-02T12:15:50.307Z,98289.03
2022-08-02T12:18:07.759Z,98283.81
2022-08-02T12:20:13.588Z,98266.19
2022-08-02T12:22:24.312Z,98276.69
2022-08-02T12:24:32.367Z,98282.88
2022-08-02T12:26:45.133Z,98274.97
2022-08-02T12:28:59.477Z,98280.09
2022-08-02T12:31:05.255Z,98278.06
2022-08-02T12:33:13.066Z,98282.34
2022-08-02T12:35:25.916Z,98273.38
2022-08-02T12:37:32.231Z,98276.78
2022-08-02T12:39:43.195Z,98277.38
2022-08-02T12:41:54.768Z,98273.00
2022-08-02T12:44:02.998Z,98273.56
2022-08-02T12:46:07.977Z,98267.75
2022-08-02T12:48:12.882Z,98271.41
2022-08-02T12:50:26.962Z,98263.38
2022-08-02T12:52:31.890Z,98259.13
2022-08-02T12:54:42.241Z,98260.16
2022-08-02T12:56:47.704Z,98257.75
2022-08-02T12:58:53.687Z,98254.13
2022-08-02T13:01:02.844Z,98251.19
2022-08-02T13:04:07.659Z,98254.34
2022-08-02T13:05:55.900Z,98257.03
2022-08-02T13:08:02.976Z,98256.66
2022-08-02T13:10:08.605Z,98255.94
2022-08-02T13:12:13.824Z,98256.47
2022-08-02T13:14:19.088Z,98257.56
2022-08-02T13:16:30.571Z,98255.38
2022-08-02T13:18:36.296Z,98257.09
2022-08-02T13:20:45.388Z,98249.97
2022-08-02T13:22:52.763Z,98254.56
2022-08-02T13:24:58.432Z,98255.69
2022-08-02T13:27:07.949Z,98243.13
2022-08-02T13:29:13.776Z,98239.34
2022-08-02T13:31:35.865Z,98243.72
2022-08-02T13:33:44.365Z,98245.75
2022-08-02T13:35:50.778Z,98241.88
2022-08-02T13:37:55.873Z,98240.13
2022-08-02T13:40:20.487Z,98252.66
2022-08-02T13:42:25.885Z,98242.75
2022-08-02T13:44:31.050Z,98236.53
2022-08-02T13:46:36.677Z,98241.25
2022-08-02T13:48:44.188Z,98240.66
2022-08-02T13:50:49.245Z,98236.38
2022-08-02T13:52:54.151Z,98230.16
2022-08-02T13:54:59.629Z,98222.97
2022-08-02T13:57:04.788Z,98224.84
2022-08-02T13:59:57.617Z,98224.59
2022-08-02T14:01:35.441Z,98224.28
2022-08-02T14:04:07.274Z,98224.00
2022-08-02T14:06:09.385Z,98221.59
2022-08-02T14:08:17.611Z,98217.31
2022-08-02T14:10:22.891Z,98216.91
2022-08-02T14:12:27.762Z,98214.75
2022-08-02T14:14:32.729Z,98207.66
2022-08-02T14:16:37.706Z,98211.41
2022-08-02T14:18:42.582Z,98210.81
2022-08-02T14:20:48.474Z,98215.66
2022-08-02T14:22:56.008Z,98205.63
2022-08-02T14:25:09.051Z,98210.63
2022-08-02T14:27:15.744Z,98209.84
2022-08-02T14:29:21.181Z,98201.31
2022-08-02T14:31:26.085Z,98207.97
2022-08-02T14:33:30.996Z,98211.09
2022-08-02T14:35:35.985Z,98205.09
2022-08-02T14:37:41.073Z,98202.00
2022-08-02T14:40:00.125Z,98197.81
2022-08-02T14:42:06.089Z,98196.16
2022-08-02T14:44:11.226Z,98188.47
2022-08-02T14:46:16.181Z,98201.56
2022-08-02T14:48:21.048Z,98194.72
2022-08-02T14:50:25.896Z,98194.31
2022-08-02T14:52:30.794Z,98195.34
2022-08-02T14:54:35.690Z,98192.22
2022-08-02T14:56:43.190Z,98194.69
2022-08-02T14:58:48.499Z,98196.09
2022-08-02T15:00:53.647Z,98193.19
2022-08-02T15:02:58.521Z,98189.38
2022-08-02T15:05:04.577Z,98188.66
2022-08-02T15:07:09.451Z,98190.91
2022-08-02T15:09:14.557Z,98189.44
2022-08-02T15:11:21.811Z,98186.53
2022-08-02T15:13:29.409Z,98179.59
2022-08-02T15:15:43.272Z,98189.63
2022-08-02T15:17:48.704Z,98182.63
2022-08-02T15:19:57.407Z,98182.41
2022-08-02T15:22:05.225Z,98187.03
2022-08-02T15:24:10.422Z,98185.38
2022-08-02T15:26:15.366Z,98190.41
2022-08-02T15:28:20.227Z,98184.81
2022-08-02T15:30:27.923Z,98182.34
2022-08-02T15:32:32.897Z,98176.94
2022-08-02T15:34:37.968Z,98177.72
2022-08-02T15:36:43.092Z,98166.03
2022-08-02T15:38:48.034Z,98172.66
2022-08-02T15:40:55.288Z,98174.53
2022-08-02T15:43:00.797Z,98167.38
2022-08-02T15:45:05.760Z,98168.50
2022-08-02T15:47:13.603Z,98168.16
2022-08-02T15:49:20.500Z,98165.34
2022-08-02T15:51:26.371Z,98170.50
2022-08-02T15:53:31.397Z,98166.28
2022-08-02T15:55:51.951Z,98173.34
2022-08-02T15:58:01.291Z,98165.66
2022-08-02T16:00:18.181Z,98167.00
2022-08-02T16:02:26.335Z,98163.25
2022-08-02T16:04:31.335Z,98162.44
2022-08-02T16:06:36.410Z,98162.25
2022-08-02T16:08:53.638Z,98164.50
2022-08-02T16:10:59.886Z,98161.50
2022-08-02T16:13:17.565Z,98167.66
2022-08-02T16:15:25.145Z,98165.03
2022-08-02T16:17:49.368Z,98160.75
2022-08-02T16:19:57.976Z,98166.22
2022-08-02T16:22:03.493Z,98164.28
2022-08-02T16:24:08.896Z,98164.34
2022-08-02T16:26:14.023Z,98161.78
2022-08-02T16:28:19.041Z,98168.66
2022-08-02T16:30:24.053Z,98168.16
2022-08-02T16:32:28.948Z,98170.50
2022-08-02T16:34:57.159Z,98173.91
2022-08-02T16:37:01.430Z,98160.69
2022-08-02T16:39:07.347Z,98165.53
2022-08-02T16:41:12.306Z,98166.94
2022-08-02T16:43:21.167Z,98165.94
2022-08-02T16:45:26.402Z,98160.97
2022-08-02T16:47:42.749Z,98171.72
2022-08-02T16:50:07.192Z,98159.66
2022-08-02T16:52:15.667Z,98168.28
2022-08-02T16:54:20.543Z,98163.50
2022-08-02T16:56:25.627Z,98166.38
2022-08-02T16:58:31.665Z,98164.28
2022-08-02T17:00:36.781Z,98161.97
2022-08-02T17:02:41.971Z,98164.13
2022-08-02T17:04:47.473Z,98164.47
2022-08-02T17:06:55.027Z,98160.75
2022-08-02T17:09:02.788Z,98156.38
2022-08-02T17:11:07.337Z,98168.47
2022-08-02T17:13:12.988Z,98170.72
2022-08-02T17:16:07.831Z,98165.72
2022-08-02T17:17:45.200Z,98164.88
2022-08-02T17:19:50.923Z,98158.81
2022-08-02T17:21:58.470Z,98162.34
2022-08-02T17:24:07.500Z,98162.72
2022-08-02T17:26:15.777Z,98159.22
2022-08-02T17:28:20.687Z,98165.81
2022-08-02T17:30:36.161Z,98159.78
2022-08-02T17:32:45.565Z,98158.72
2022-08-02T17:34:59.786Z,98158.09
2022-08-02T17:37:08.468Z,98159.69
2022-08-02T17:39:16.497Z,98166.09
2022-08-02T17:41:37.471Z,98163.16
2022-08-02T17:43:43.200Z,98160.34
2022-08-02T17:46:00.835Z,98164.44
2022-08-02T17:48:07.313Z,98162.97
2022-08-02T17:50:13.962Z,98162.91
2022-08-02T17:52:51.910Z,98171.53
2022-08-02T17:54:47.373Z,98173.13
2022-08-02T17:56:52.365Z,98173.88
2022-08-02T17:58:57.362Z,98176.78
2022-08-02T18:01:02.160Z,98170.22
2022-08-02T18:03:10.179Z,98174.72
2022-08-02T18:05:15.387Z,98171.41
2022-08-02T18:07:25.407Z,98175.94
2022-08-02T18:09:35.375Z,98169.09
2022-08-02T18:11:52.107Z,98171.78
2022-08-02T18:13:58.159Z,98175.69
2022-08-02T18:16:02.731Z,98173.75
2022-08-02T18:18:08.738Z,98175.72
2022-08-02T18:20:17.282Z,98182.09
2022-08-02T18:22:26.418Z,98186.84
2022-08-02T18:24:31.669Z,98179.13
2022-08-02T18:26:36.300Z,98186.25
2022-08-02T18:28:41.212Z,98187.81
2022-08-02T18:30:45.883Z,98189.78
2022-08-02T18:33:59.674Z,98182.47
2022-08-02T18:35:15.615Z,98193.94
2022-08-02T18:37:20.244Z,98185.00
2022-08-02T18:39:27.708Z,98192.38
2022-08-02T18:41:38.602Z,98190.44
2022-08-02T18:43:45.936Z,98198.03
2022-08-02T18:46:06.184Z,98197.75
2022-08-02T18:48:17.442Z,98201.94
2022-08-02T18:50:22.958Z,98200.84
2022-08-02T18:52:32.561Z,98206.94
2022-08-02T18:54:41.219Z,98209.31
2022-08-02T18:56:47.350Z,98209.84
2022-08-02T18:58:52.616Z,98208.56
2022-08-02T19:00:57.202Z,98213.69
2022-08-02T19:03:04.327Z,98209.06
2022-08-02T19:05:15.896Z,98214.13
2022-08-02T19:07:25.910Z,98218.16
2022-08-02T19:09:53.446Z,98221.38
2022-08-02T19:11:59.633Z,98218.19
2022-08-02T19:14:04.992Z,98221.59
2022-08-02T19:16:10.020Z,98219.28
2022-08-02T19:18:15.135Z,98223.31
2022-08-02T19:20:21.787Z,98221.53
2022-08-02T19:22:27.336Z,98217.72
2022-08-02T19:24:33.001Z,98223.63
2022-08-02T19:26:41.236Z,98219.78
2022-08-02T19:28:46.134Z,98223.19
2022-08-02T19:30:53.577Z,98232.75
2022-08-02T19:33:00.368Z,98231.25
2022-08-02T19:35:29.839Z,98228.91
2022-08-02T19:37:39.368Z,98231.41
2022-08-02T19:39:45.867Z,98236.28
2022-08-02T19:41:54.321Z,98235.81
2022-08-02T19:44:23.316Z,98239.16
2022-08-02T19:46:26.131Z,98235.16
2022-08-02T19:48:31.163Z,98233.03
2022-08-02T19:50:35.991Z,98235.38
2022-08-02T19:52:42.798Z,98241.06
2022-08-02T19:54:54.651Z,98243.41
2022-08-02T19:57:04.025Z,98244.59
2022-08-02T19:59:13.270Z,98245.13
2022-08-02T20:01:23.582Z,98247.13
2022-08-02T20:03:52.364Z,98250.47
2022-08-02T20:05:57.804Z,98254.31
2022-08-02T20:08:03.810Z,98257.19
2022-08-02T20:10:11.103Z,98251.31
2022-08-02T20:12:19.069Z,98251.00
2022-08-02T20:14:26.763Z,98254.16
2022-08-02T20:16:33.145Z,98251.00
2022-08-02T20:18:38.445Z,98254.00
2022-08-02T20:20:44.327Z,98245.31
2022-08-02T20:23:01.647Z,98242.16
2022-08-02T20:25:29.100Z,98247.16
2022-08-02T20:27:36.678Z,98241.00
2022-08-02T20:29:43.290Z,98238.47
2022-08-02T20:31:53.427Z,98238.16
2022-08-02T20:33:58.320Z,98242.16
2022-08-02T20:36:03.890Z,98239.16
2022-08-02T20:38:11.990Z,98245.34
2022-08-02T20:40:18.538Z,98245.00
2022-08-02T20:42:24.636Z,98245.53
2022-08-02T20:44:34.568Z,98245.47
2022-08-02T20:46:39.491Z,98244.31
2022-08-02T20:48:45.075Z,98244.63
2022-08-02T20:50:54.487Z,98239.63
2022-08-02T20:52:59.421Z,98245.31
2022-08-02T20:55:04.204Z,98242.94
2022-08-02T20:57:09.134Z,98241.91
2022-08-02T20:59:15.892Z,98246.06
2022-08-02T21:01:25.194Z,98245.41
2022-08-02T21:03:41.854Z,98246.59
2022-08-02T21:05:56.032Z,98249.72
2022-08-02T21:08:02.380Z,98245.72
2022-08-02T21:10:08.911Z,98243.38
2022-08-02T21:12:13.825Z,98250.00
2022-08-02T21:14:18.853Z,98242.81
2022-08-02T21:16:26.413Z,98248.09
2022-08-02T21:18:37.027Z,98241.59
2022-08-02T21:20:46.017Z,98238.56
2022-08-02T21:22:50.967Z,98243.22
2022-08-02T21:24:55.970Z,98243.38
2022-08-02T21:27:00.828Z,98244.53
2022-08-02T21:29:06.000Z,98241.50
2022-08-02T21:31:12.256Z,98244.50
2022-08-02T21:33:23.599Z,98247.47
2022-08-02T21:35:28.710Z,98241.63
2022-08-02T21:37:44.754Z,98245.78
2022-08-02T21:39:50.100Z,98241.59
2022-08-02T21:41:59.221Z,98241.41
2022-08-02T21:44:06.398Z,98248.69
2022-08-02T21:46:11.715Z,98240.72
2022-08-02T21:48:22.177Z,98243.22
2022-08-02T21:50:31.577Z,98243.22
2022-08-02T21:52:36.466Z,98239.56
2022-08-02T21:54:47.247Z,98251.03
2022-08-02T21:56:54.265Z,98246.72
2022-08-02T21:58:59.189Z,98251.22
2022-08-02T22:01:05.315Z,98251.38
2022-08-02T22:03:23.175Z,98243.19
2022-08-02T22:05:37.359Z,98238.16
2022-08-02T22:07:45.621Z,98244.44
2022-08-02T22:09:50.815Z,98241.13
2022-08-02T22:11:55.963Z,98246.44
2022-08-02T22:14:00.758Z,98243.91
2022-08-02T22:16:06.392Z,98250.69
2022-08-02T22:18:14.414Z,98248.53
2022-08-02T22:20:21.102Z,98250.44
2022-08-02T22:22:28.886Z,98254.72
2022-08-02T22:24:34.116Z,98250.03
2022-08-02T22:26:39.229Z,98245.00
2022-08-02T22:28:51.730Z,98251.91
2022-08-02T22:31:00.180Z,98254.91
2022-08-02T22:33:17.937Z,98260.66
2022-08-02T22:35:23.487Z,98256.97
2022-08-02T22:38:17.268Z,98251.69
2022-08-02T22:40:09.279Z,98255.28
2022-08-02T22:42:17.492Z,98260.03
2022-08-02T22:44:22.706Z,98256.53
2022-08-02T22:46:27.326Z,98260.63
2022-08-02T22:48:40.050Z,98261.94
2022-08-02T22:50:45.422Z,98261.25
2022-08-02T22:52:52.899Z,98272.06
2022-08-02T22:54:57.978Z,98268.84
2022-08-02T22:57:02.834Z,98254.31
2022-08-02T23:01:23.257Z,98263.59
2022-08-02T23:03:27.985Z,98267.84
2022-08-02T23:05:33.308Z,98263.25
2022-08-02T23:07:38.920Z,98263.38
2022-08-02T23:09:46.550Z,98268.03
2022-08-02T23:11:51.457Z,98265.97
2022-08-02T23:13:56.300Z,98266.41
2022-08-02T23:16:13.604Z,98264.00
2022-08-02T23:18:30.952Z,98259.94
2022-08-02T23:20:36.093Z,98266.44
2022-08-02T23:22:40.729Z,98264.34
2022-08-02T23:24:48.444Z,98266.59
2022-08-02T23:26:53.242Z,98260.06
2022-08-02T23:28:58.134Z,98269.00
2022-08-02T23:31:03.204Z,98262.84
2022-08-02T23:33:16.571Z,98263.69
2022-08-02T23:35:21.527Z,98263.97
2022-08-02T23:37:26.860Z,98266.50
2022-08-02T23:39:31.943Z,98267.31
2022-08-02T23:41:39.198Z,98269.44
2022-08-02T23:44:03.777Z,98274.06
2022-08-02T23:46:08.981Z,98270.69
2022-08-02T23:48:13.904Z,98273.50
2022-08-02T23:50:18.799Z,98269.31
2022-08-02T23:52:25.047Z,98265.13
2022-08-02T23:54:30.041Z,98269.38
2022-08-02T23:56:34.860Z,98279.41
2022-08-02T23:58:42.912Z,98264.75
